Seaexpressii — HO4619 — position and weather

sailwx.info

Track history (hours):
 
Tides and Currents Weather Stations Pressure Air Temp Water Temp Dewpoint Dewpoint Depression Visibility Wind Speed Wind Dir Waves Ship Positions

Seaexpressii

Last reported at 2016-Dec-04 15:33 UTC. Time now 2016-Dec-06 10:11 UTC.
Position N 26°04' W 079°56'.

Length 37 m; draft 2.2 m.

Type: Ship. MMSI: 356449000.

Date/timePositionNaut miles runAvg speedWind from/ knotsBaromVisibWave heightAir tempDewpointWater temp
2016-Dec-04 15:33N 26°04' W 079°56'0 0.0
2016-Dec-04 14:33N 26°04' W 079°56'2 1.7
2016-Dec-04 13:33N 26°04' W 079°58'8 7.6
2016-Dec-04 12:33N 26°05' W 080°07'1 1.2
2016-Dec-04 11:33N 26°04' W 080°08'0 0.0
2016-Dec-04 10:34N 26°04' W 080°08'0 0.0
2016-Dec-04 09:34N 26°04' W 080°08'0 0.0
2016-Dec-04 08:34N 26°04' W 080°08'0 0.0
2016-Dec-04 07:33N 26°04' W 080°08'0 0.0
2016-Dec-04 06:33N 26°04' W 080°08'0 0.0
2016-Dec-04 05:33N 26°04' W 080°08'0 0.0
2016-Dec-04 04:33N 26°04' W 080°08'0 0.0
2016-Dec-04 03:33N 26°04' W 080°08'0 0.0
2016-Dec-04 02:33N 26°04' W 080°08'0 0.0
2016-Dec-04 01:34N 26°04' W 080°08'0 0.0
2016-Dec-04 00:33N 26°04' W 080°08'0 0.2
2016-Dec-03 23:34N 26°04' W 080°08'7 6.6
2016-Dec-03 22:34N 26°04' W 080°00'1010.5
2016-Dec-03 21:34N 26°00' W 079°50'1111.0
2016-Dec-03 20:32N 25°54' W 079°39'3 0.3
2016-Dec-03 09:08N 25°54' W 079°36'5 5.8
2016-Dec-03 08:15N 25°58' W 079°40'4 5.9
2016-Dec-03 07:34N 26°01' W 079°44'8 7.7
2016-Dec-03 06:33N 26°02' W 079°52'7 7.0
2016-Dec-03 05:34N 26°04' W 079°60'7 6.5
2016-Dec-03 04:34N 26°05' W 080°07'1 1.4
2016-Dec-03 03:33N 26°04' W 080°08'0 0.0
2016-Dec-03 02:33N 26°04' W 080°08'0 0.0
2016-Dec-03 01:33N 26°04' W 080°08'0 0.0
2016-Dec-03 00:33N 26°04' W 080°08'0 0.0
2016-Dec-02 23:33N 26°04' W 080°08'0 0.0
2016-Dec-02 22:33N 26°04' W 080°08'0 0.0
2016-Dec-02 21:33N 26°04' W 080°08'0 0.0
2016-Dec-02 20:34N 26°04' W 080°08'0 0.0
2016-Dec-02 19:34N 26°04' W 080°08'0 0.0
2016-Dec-02 18:34N 26°04' W 080°08'0 0.0
2016-Dec-02 17:33N 26°04' W 080°08'0 0.1
2016-Dec-02 16:33N 26°04' W 080°08'6 5.6
2016-Dec-02 15:34N 26°04' W 080°02'1010.4
2016-Dec-02 14:33N 26°01' W 079°51'1110.7
2016-Dec-02 13:32N 25°58' W 079°39'  
2016-Nov-29 20:34N 26°05' W 079°42'9 9.3
2016-Nov-29 19:33N 26°04' W 079°53'8 8.4
2016-Nov-29 18:33N 26°05' W 080°02'6 5.5
2016-Nov-29 17:34N 26°04' W 080°08'0 0.0
2016-Nov-29 16:33N 26°04' W 080°08'0 0.0
2016-Nov-29 15:33N 26°04' W 080°08'0 0.1
2016-Nov-29 14:33N 26°04' W 080°08'0 0.0
2016-Nov-29 13:33N 26°04' W 080°08'0 0.1
2016-Nov-29 12:33N 26°04' W 080°08'0 0.0
2016-Nov-29 11:33N 26°04' W 080°08'0 0.0
2016-Nov-29 10:33N 26°04' W 080°08'0 0.0
2016-Nov-29 09:33N 26°04' W 080°08'0 0.0
2016-Nov-29 08:33N 26°04' W 080°08'0 0.0
2016-Nov-29 07:33N 26°04' W 080°08'0 0.0
2016-Nov-29 06:33N 26°04' W 080°08'0 0.0
2016-Nov-29 05:33N 26°04' W 080°08'0 0.0
2016-Nov-29 04:33N 26°04' W 080°08'0 0.0
2016-Nov-29 03:34N 26°04' W 080°08'0 0.1
2016-Nov-29 02:33N 26°04' W 080°08'1 0.9
2016-Nov-29 01:33N 26°04' W 080°07'6 6.0
2016-Nov-29 00:33N 26°07' W 080°01'8 8.4
2016-Nov-28 23:33N 26°09' W 079°52'8 8.0
2016-Nov-28 22:33N 26°12' W 079°44'9 0.6
2016-Nov-28 07:26N 26°15' W 079°34'7 7.7
2016-Nov-28 06:32N 26°13' W 079°41'7 7.4
2016-Nov-28 05:33N 26°11' W 079°49'8 7.9
2016-Nov-28 04:33N 26°08' W 079°57'8 7.9
2016-Nov-28 03:34N 26°06' W 080°05'3 3.0
2016-Nov-28 02:33N 26°04' W 080°08'0 0.0
2016-Nov-28 01:33N 26°04' W 080°08'0 0.0
2016-Nov-28 00:33N 26°04' W 080°08'0 0.0
2016-Nov-27 23:33N 26°04' W 080°08'0 0.0
2016-Nov-27 22:33N 26°04' W 080°08'0 0.0
2016-Nov-27 21:33N 26°04' W 080°08'0 0.0
2016-Nov-27 20:33N 26°04' W 080°08'0 0.0
2016-Nov-27 19:33N 26°04' W 080°08'0 0.0
2016-Nov-27 18:33N 26°04' W 080°08'0 0.1
2016-Nov-27 17:33N 26°04' W 080°08'0 0.0
2016-Nov-27 16:33N 26°04' W 080°08'0 0.0
2016-Nov-27 15:33N 26°04' W 080°08'0 0.0
2016-Nov-27 14:33N 26°04' W 080°08'0 0.0
2016-Nov-27 13:33N 26°04' W 080°08'0 0.0
2016-Nov-27 12:33N 26°04' W 080°08'3 3.3
2016-Nov-27 11:33N 26°05' W 080°04'10 9.6
2016-Nov-27 10:34N 26°02' W 079°54'9 9.1
2016-Nov-27 09:33N 26°00' W 079°44'1 0.0
2016-Nov-26 02:33N 25°60' W 079°44'9 8.7
2016-Nov-26 01:33N 26°02' W 079°53'9 8.6
2016-Nov-26 00:33N 26°04' W 080°02'5 5.2
2016-Nov-25 23:33N 26°04' W 080°08'0 0.0
2016-Nov-25 22:33N 26°04' W 080°08'0 0.0
2016-Nov-25 21:33N 26°04' W 080°08'0 0.0
2016-Nov-25 20:33N 26°04' W 080°08'0 0.0
2016-Nov-25 19:33N 26°04' W 080°08'0 0.0
2016-Nov-25 18:33N 26°04' W 080°08'0 0.0
2016-Nov-25 17:34N 26°04' W 080°08'0 0.0
2016-Nov-25 16:33N 26°04' W 080°08'0 0.0
2016-Nov-25 15:33N 26°04' W 080°08'0 0.1
2016-Nov-25 14:33N 26°04' W 080°08'0 0.0
2016-Nov-25 13:33N 26°04' W 080°08'0 0.1
2016-Nov-25 12:33N 26°04' W 080°08'0 0.0
2016-Nov-25 11:33N 26°04' W 080°08'0 0.0
2016-Nov-25 10:33N 26°04' W 080°08'0 0.0
2016-Nov-25 09:33N 26°04' W 080°08'0 0.0
2016-Nov-25 08:33N 26°04' W 080°08'0 0.0
2016-Nov-25 07:33N 26°04' W 080°08'0 0.0
2016-Nov-25 06:33N 26°04' W 080°08'0 0.0
2016-Nov-25 05:33N 26°04' W 080°08'0 0.0
2016-Nov-25 04:33N 26°04' W 080°08'0 0.0
2016-Nov-25 03:33N 26°04' W 080°08'0 0.0
2016-Nov-25 02:33N 26°04' W 080°08'0 0.0
2016-Nov-25 01:33N 26°04' W 080°08'0 0.0
2016-Nov-25 00:33N 26°04' W 080°08'0 0.0
2016-Nov-24 23:33N 26°04' W 080°08'0 0.0
2016-Nov-24 22:33N 26°04' W 080°08'0 0.0
2016-Nov-24 21:33N 26°04' W 080°08'0 0.0
2016-Nov-24 20:33N 26°04' W 080°08'6 6.0
2016-Nov-24 19:33N 26°04' W 080°01'1110.4
2016-Nov-24 18:33N 26°01' W 079°50'  
Track history (hours):
 
Tides and Currents Weather Stations Pressure Air Temp Water Temp Dewpoint Dewpoint Depression Visibility Wind Speed Wind Dir Waves Ship Positions

Seaexpressii

Last reported at 2016-Dec-04 15:33 UTC. Time now 2016-Dec-06 10:11 UTC.
Position N 26°04' W 079°56'.

Length 37 m; draft 2.2 m.

Type: Ship. MMSI: 356449000.

Date/timePositionNaut miles runAvg speedWind from/ knotsBaromVisibWave heightAir tempDewpointWater temp
2016-Dec-04 15:33N 26°04' W 079°56'0 0.0
2016-Dec-04 14:33N 26°04' W 079°56'2 1.7
2016-Dec-04 13:33N 26°04' W 079°58'8 7.6
2016-Dec-04 12:33N 26°05' W 080°07'1 1.2
2016-Dec-04 11:33N 26°04' W 080°08'0 0.0
2016-Dec-04 10:34N 26°04' W 080°08'0 0.0
2016-Dec-04 09:34N 26°04' W 080°08'0 0.0
2016-Dec-04 08:34N 26°04' W 080°08'0 0.0
2016-Dec-04 07:33N 26°04' W 080°08'0 0.0
2016-Dec-04 06:33N 26°04' W 080°08'0 0.0
2016-Dec-04 05:33N 26°04' W 080°08'0 0.0
2016-Dec-04 04:33N 26°04' W 080°08'0 0.0
2016-Dec-04 03:33N 26°04' W 080°08'0 0.0
2016-Dec-04 02:33N 26°04' W 080°08'0 0.0
2016-Dec-04 01:34N 26°04' W 080°08'0 0.0
2016-Dec-04 00:33N 26°04' W 080°08'0 0.2
2016-Dec-03 23:34N 26°04' W 080°08'7 6.6
2016-Dec-03 22:34N 26°04' W 080°00'1010.5
2016-Dec-03 21:34N 26°00' W 079°50'1111.0
2016-Dec-03 20:32N 25°54' W 079°39'3 0.3
2016-Dec-03 09:08N 25°54' W 079°36'5 5.8
2016-Dec-03 08:15N 25°58' W 079°40'4 5.9
2016-Dec-03 07:34N 26°01' W 079°44'8 7.7
2016-Dec-03 06:33N 26°02' W 079°52'7 7.0
2016-Dec-03 05:34N 26°04' W 079°60'7 6.5
2016-Dec-03 04:34N 26°05' W 080°07'1 1.4
2016-Dec-03 03:33N 26°04' W 080°08'0 0.0
2016-Dec-03 02:33N 26°04' W 080°08'0 0.0
2016-Dec-03 01:33N 26°04' W 080°08'0 0.0
2016-Dec-03 00:33N 26°04' W 080°08'0 0.0
2016-Dec-02 23:33N 26°04' W 080°08'0 0.0
2016-Dec-02 22:33N 26°04' W 080°08'0 0.0
2016-Dec-02 21:33N 26°04' W 080°08'0 0.0
2016-Dec-02 20:34N 26°04' W 080°08'0 0.0
2016-Dec-02 19:34N 26°04' W 080°08'0 0.0
2016-Dec-02 18:34N 26°04' W 080°08'0 0.0
2016-Dec-02 17:33N 26°04' W 080°08'0 0.1
2016-Dec-02 16:33N 26°04' W 080°08'6 5.6
2016-Dec-02 15:34N 26°04' W 080°02'1010.4
2016-Dec-02 14:33N 26°01' W 079°51'1110.7
2016-Dec-02 13:32N 25°58' W 079°39'  
2016-Nov-29 20:34N 26°05' W 079°42'9 9.3
2016-Nov-29 19:33N 26°04' W 079°53'8 8.4
2016-Nov-29 18:33N 26°05' W 080°02'6 5.5
2016-Nov-29 17:34N 26°04' W 080°08'0 0.0
2016-Nov-29 16:33N 26°04' W 080°08'0 0.0
2016-Nov-29 15:33N 26°04' W 080°08'0 0.1
2016-Nov-29 14:33N 26°04' W 080°08'0 0.0
2016-Nov-29 13:33N 26°04' W 080°08'0 0.1
2016-Nov-29 12:33N 26°04' W 080°08'0 0.0
2016-Nov-29 11:33N 26°04' W 080°08'0 0.0
2016-Nov-29 10:33N 26°04' W 080°08'0 0.0
2016-Nov-29 09:33N 26°04' W 080°08'0 0.0
2016-Nov-29 08:33N 26°04' W 080°08'0 0.0
2016-Nov-29 07:33N 26°04' W 080°08'0 0.0
2016-Nov-29 06:33N 26°04' W 080°08'0 0.0
2016-Nov-29 05:33N 26°04' W 080°08'0 0.0
2016-Nov-29 04:33N 26°04' W 080°08'0 0.0
2016-Nov-29 03:34N 26°04' W 080°08'0 0.1
2016-Nov-29 02:33N 26°04' W 080°08'1 0.9
2016-Nov-29 01:33N 26°04' W 080°07'6 6.0
2016-Nov-29 00:33N 26°07' W 080°01'8 8.4
2016-Nov-28 23:33N 26°09' W 079°52'8 8.0
2016-Nov-28 22:33N 26°12' W 079°44'9 0.6
2016-Nov-28 07:26N 26°15' W 079°34'7 7.7
2016-Nov-28 06:32N 26°13' W 079°41'7 7.4
2016-Nov-28 05:33N 26°11' W 079°49'8 7.9
2016-Nov-28 04:33N 26°08' W 079°57'8 7.9
2016-Nov-28 03:34N 26°06' W 080°05'3 3.0
2016-Nov-28 02:33N 26°04' W 080°08'0 0.0
2016-Nov-28 01:33N 26°04' W 080°08'0 0.0
2016-Nov-28 00:33N 26°04' W 080°08'0 0.0
2016-Nov-27 23:33N 26°04' W 080°08'0 0.0
2016-Nov-27 22:33N 26°04' W 080°08'0 0.0
2016-Nov-27 21:33N 26°04' W 080°08'0 0.0
2016-Nov-27 20:33N 26°04' W 080°08'0 0.0
2016-Nov-27 19:33N 26°04' W 080°08'0 0.0
2016-Nov-27 18:33N 26°04' W 080°08'0 0.1
2016-Nov-27 17:33N 26°04' W 080°08'0 0.0
2016-Nov-27 16:33N 26°04' W 080°08'0 0.0
2016-Nov-27 15:33N 26°04' W 080°08'0 0.0
2016-Nov-27 14:33N 26°04' W 080°08'0 0.0
2016-Nov-27 13:33N 26°04' W 080°08'0 0.0
2016-Nov-27 12:33N 26°04' W 080°08'3 3.3
2016-Nov-27 11:33N 26°05' W 080°04'10 9.6
2016-Nov-27 10:34N 26°02' W 079°54'9 9.1
2016-Nov-27 09:33N 26°00' W 079°44'1 0.0
2016-Nov-26 02:33N 25°60' W 079°44'9 8.7
2016-Nov-26 01:33N 26°02' W 079°53'9 8.6
2016-Nov-26 00:33N 26°04' W 080°02'5 5.2
2016-Nov-25 23:33N 26°04' W 080°08'0 0.0
2016-Nov-25 22:33N 26°04' W 080°08'0 0.0
2016-Nov-25 21:33N 26°04' W 080°08'0 0.0
2016-Nov-25 20:33N 26°04' W 080°08'0 0.0
2016-Nov-25 19:33N 26°04' W 080°08'0 0.0
2016-Nov-25 18:33N 26°04' W 080°08'0 0.0
2016-Nov-25 17:34N 26°04' W 080°08'0 0.0
2016-Nov-25 16:33N 26°04' W 080°08'0 0.0
2016-Nov-25 15:33N 26°04' W 080°08'0 0.1
2016-Nov-25 14:33N 26°04' W 080°08'0 0.0
2016-Nov-25 13:33N 26°04' W 080°08'0 0.1
2016-Nov-25 12:33N 26°04' W 080°08'0 0.0
2016-Nov-25 11:33N 26°04' W 080°08'0 0.0
2016-Nov-25 10:33N 26°04' W 080°08'0 0.0
2016-Nov-25 09:33N 26°04' W 080°08'0 0.0
2016-Nov-25 08:33N 26°04' W 080°08'0 0.0
2016-Nov-25 07:33N 26°04' W 080°08'0 0.0
2016-Nov-25 06:33N 26°04' W 080°08'0 0.0
2016-Nov-25 05:33N 26°04' W 080°08'0 0.0
2016-Nov-25 04:33N 26°04' W 080°08'0 0.0
2016-Nov-25 03:33N 26°04' W 080°08'0 0.0
2016-Nov-25 02:33N 26°04' W 080°08'0 0.0
2016-Nov-25 01:33N 26°04' W 080°08'0 0.0
2016-Nov-25 00:33N 26°04' W 080°08'0 0.0
2016-Nov-24 23:33N 26°04' W 080°08'0 0.0
2016-Nov-24 22:33N 26°04' W 080°08'0 0.0
2016-Nov-24 21:33N 26°04' W 080°08'0 0.0
2016-Nov-24 20:33N 26°04' W 080°08'6 6.0
2016-Nov-24 19:33N 26°04' W 080°01'1110.4
2016-Nov-24 18:33N 26°01' W 079°50'  

Dump ship's entire track history